PWSweather.com
Personal Weather Stations
Station Observations
ANTHEMNP
Anthem, AZ 85086

Anthem, AZ 85086

Lat: 33.876464, Lon: -112.13861199999997

Elevation: 1930

Station Type: AcuRite 1036

Latest ConditionsUpdated 3:35:01 PM MST Thursday, Dec 14, 2017
Currently Today's Max Today's Min Today's Average
Temperature 72.3°F22.4°C 74.1°F23.4°C 48.6°F9.2°C 58.8°F14.9°C
Dew Point 25.0°F-3.9°C 27.8°F-2.3°C 6.5°F-14.2°C 13.6°F-10.2°C
Winds 4.6 mph E7.4 kmh E 15.0 mph NNW24.1 kmh NNW - 3.6 mph 5.8 kmh
Wind Gusts 5.8 mph9.3 kmh 17.3 mph27.8 kmh - -
Humidity 17% 20% 14% 17%
Pressure 29.95 in1014.2 mb 29.98 in1015.2 mb 29.90 in1012.5 mb -
Hour Temp Dew Point Humidity Winds Wind Gusts Pressure Precip Precip Rate Daily Precip Total
03:35 PM 72.3°F22.4°C 25.0°F-3.9°C 17% 4.6 mph E7.4 kmh E 5.8 mph9.3 kmh 29.95 in1014.2 mb - 0.00 in0.0 mm 0.00 in0.0 mm
03:30 PM 72.3°F22.4°C 25.0°F-3.9°C 17% 4.6 mph E7.4 kmh E 6.9 mph11.1 kmh 29.95 in1014.2 mb - 0.00 in0.0 mm 0.00 in0.0 mm
03:25 PM 72.8°F22.7°C 25.5°F-3.6°C 17% 5.8 mph NE9.3 kmh NE 6.9 mph11.1 kmh 29.95 in1014.2 mb - 0.00 in0.0 mm 0.00 in0.0 mm
03:20 PM 72.9°F22.7°C 25.5°F-3.6°C 17% 4.6 mph E7.4 kmh E 5.8 mph9.3 kmh 29.94 in1013.9 mb - 0.00 in0.0 mm 0.00 in0.0 mm
03:15 PM 72.9°F22.7°C 25.5°F-3.6°C 17% 3.5 mph ENE5.6 kmh ENE 4.6 mph7.4 kmh 29.94 in1013.9 mb - 0.00 in0.0 mm 0.00 in0.0 mm
03:10 PM 73.0°F22.8°C 25.6°F-3.6°C 17% 6.9 mph NW11.1 kmh NW 8.1 mph13.0 kmh 29.94 in1013.9 mb - 0.00 in0.0 mm 0.00 in0.0 mm
03:05 PM 73.3°F22.9°C 25.9°F-3.4°C 17% 4.6 mph NNW7.4 kmh NNW 8.1 mph13.0 kmh 29.94 in1013.9 mb - 0.00 in0.0 mm 0.00 in0.0 mm
03:00 PM 74.1°F23.4°C 26.4°F-3.1°C 17% 2.3 mph NE3.7 kmh NE 5.8 mph9.3 kmh 29.94 in1013.9 mb - 0.00 in0.0 mm 0.00 in0.0 mm
02:55 PM 73.6°F23.1°C 26.1°F-3.3°C 17% 3.5 mph N5.6 kmh N 4.6 mph7.4 kmh 29.94 in1013.9 mb - 0.00 in0.0 mm 0.00 in0.0 mm
02:50 PM 73.6°F23.1°C 26.1°F-3.3°C 17% 4.6 mph N7.4 kmh N 6.9 mph11.1 kmh 29.94 in1013.9 mb - 0.00 in0.0 mm 0.00 in0.0 mm
02:45 PM 73.2°F22.9°C 25.7°F-3.5°C 17% 4.6 mph NE7.4 kmh NE 5.8 mph9.3 kmh 29.94 in1013.9 mb - 0.00 in0.0 mm 0.00 in0.0 mm
02:40 PM 72.9°F22.7°C 25.5°F-3.6°C 17% 2.3 mph NNE3.7 kmh NNE 3.5 mph5.6 kmh 29.94 in1013.9 mb - 0.00 in0.0 mm 0.00 in0.0 mm
02:35 PM 72.9°F22.7°C 25.5°F-3.6°C 17% 4.6 mph NNE7.4 kmh NNE 5.8 mph9.3 kmh 29.94 in1013.9 mb - 0.00 in0.0 mm 0.00 in0.0 mm
02:30 PM 73.2°F22.9°C 25.8°F-3.4°C 17% 8.1 mph NNE13.0 kmh NNE 8.1 mph13.0 kmh 29.94 in1013.9 mb - 0.00 in0.0 mm 0.00 in0.0 mm
02:25 PM 73.0°F22.8°C 25.6°F-3.6°C 17% 8.1 mph N13.0 kmh N 9.2 mph14.8 kmh 29.94 in1013.9 mb - 0.00 in0.0 mm 0.00 in0.0 mm
02:20 PM 73.1°F22.8°C 25.6°F-3.6°C 17% 5.8 mph N9.3 kmh N 8.1 mph13.0 kmh 29.93 in1013.5 mb - 0.00 in0.0 mm 0.00 in0.0 mm
02:15 PM 73.2°F22.9°C 27.1°F-2.7°C 18% 5.8 mph N9.3 kmh N 5.8 mph9.3 kmh 29.93 in1013.5 mb - 0.00 in0.0 mm 0.00 in0.0 mm
02:10 PM 73.4°F23.0°C 27.3°F-2.6°C 18% 5.8 mph NNE9.3 kmh NNE 5.8 mph9.3 kmh 29.93 in1013.5 mb - 0.00 in0.0 mm 0.00 in0.0 mm
02:05 PM 73.0°F22.8°C 27.0°F-2.8°C 18% 4.6 mph ESE7.4 kmh ESE 4.6 mph7.4 kmh 29.93 in1013.5 mb - 0.00 in0.0 mm 0.00 in0.0 mm
02:00 PM 73.2°F22.9°C 27.1°F-2.7°C 18% 6.9 mph NE11.1 kmh NE 6.9 mph11.1 kmh 29.93 in1013.5 mb - 0.00 in0.0 mm 0.00 in0.0 mm
01:55 PM 73.6°F23.1°C 27.4°F-2.6°C 18% 6.9 mph N11.1 kmh N 8.1 mph13.0 kmh 29.94 in1013.9 mb - 0.00 in0.0 mm 0.00 in0.0 mm
01:50 PM 73.2°F22.9°C 27.1°F-2.7°C 18% 5.8 mph NW9.3 kmh NW 5.8 mph9.3 kmh 29.94 in1013.9 mb - 0.00 in0.0 mm 0.00 in0.0 mm
01:45 PM 72.4°F22.4°C 26.4°F-3.1°C 18% 5.8 mph NNE9.3 kmh NNE 5.8 mph9.3 kmh 29.94 in1013.9 mb - 0.00 in0.0 mm 0.00 in0.0 mm
01:40 PM 72.1°F22.3°C 26.2°F-3.2°C 18% 5.8 mph NNE9.3 kmh NNE 5.8 mph9.3 kmh 29.94 in1013.9 mb - 0.00 in0.0 mm 0.00 in0.0 mm
01:35 PM 72.4°F22.4°C 26.5°F-3.1°C 18% 8.1 mph N13.0 kmh N 9.2 mph14.8 kmh 29.94 in1013.9 mb - 0.00 in0.0 mm 0.00 in0.0 mm
01:30 PM 73.6°F23.1°C 27.4°F-2.6°C 18% 5.8 mph NW9.3 kmh NW 6.9 mph11.1 kmh 29.94 in1013.9 mb - 0.00 in0.0 mm 0.00 in0.0 mm
01:25 PM 72.7°F22.6°C 26.7°F-2.9°C 18% 3.5 mph NNE5.6 kmh NNE 3.5 mph5.6 kmh 29.94 in1013.9 mb - 0.00 in0.0 mm 0.00 in0.0 mm
01:20 PM 72.3°F22.4°C 26.4°F-3.1°C 18% 3.5 mph N5.6 kmh N 4.6 mph7.4 kmh 29.93 in1013.5 mb - 0.00 in0.0 mm 0.00 in0.0 mm
01:15 PM 72.2°F22.3°C 26.3°F-3.2°C 18% 4.6 mph ENE7.4 kmh ENE 4.6 mph7.4 kmh 29.93 in1013.5 mb - 0.00 in0.0 mm 0.00 in0.0 mm
01:10 PM 72.5°F22.5°C 26.5°F-3.1°C 18% 5.8 mph NNE9.3 kmh NNE 6.9 mph11.1 kmh 29.93 in1013.5 mb - 0.00 in0.0 mm 0.00 in0.0 mm
01:05 PM 72.1°F22.3°C 27.5°F-2.5°C 19% 4.6 mph NNE7.4 kmh NNE 5.8 mph9.3 kmh 29.93 in1013.5 mb - 0.00 in0.0 mm 0.00 in0.0 mm
01:00 PM 71.4°F21.9°C 27.0°F-2.8°C 19% 5.8 mph NE9.3 kmh NE 4.6 mph7.4 kmh 29.93 in1013.5 mb - 0.00 in0.0 mm 0.00 in0.0 mm
12:55 PM 71.6°F22.0°C 27.1°F-2.7°C 19% 9.2 mph NNE14.8 kmh NNE 10.4 mph16.7 kmh 29.94 in1013.9 mb - 0.00 in0.0 mm 0.00 in0.0 mm
12:50 PM 71.5°F21.9°C 27.0°F-2.8°C 19% 9.2 mph NW14.8 kmh NW 12.7 mph20.4 kmh 29.94 in1013.9 mb - 0.00 in0.0 mm 0.00 in0.0 mm
12:45 PM 71.1°F21.7°C 26.7°F-2.9°C 19% 12.7 mph NNW20.4 kmh NNW 15.0 mph24.1 kmh 29.94 in1013.9 mb - 0.00 in0.0 mm 0.00 in0.0 mm
12:40 PM 71.4°F21.9°C 27.0°F-2.8°C 19% 12.7 mph N20.4 kmh N 16.1 mph25.9 kmh 29.94 in1013.9 mb - 0.00 in0.0 mm 0.00 in0.0 mm
12:35 PM 70.9°F21.6°C 26.5°F-3.1°C 19% 10.4 mph NNE16.7 kmh NNE 10.4 mph16.7 kmh 29.94 in1013.9 mb - 0.00 in0.0 mm 0.00 in0.0 mm
12:30 PM 70.7°F21.5°C 27.6°F-2.4°C 20% 9.2 mph NNE14.8 kmh NNE 11.5 mph18.5 kmh 29.95 in1014.2 mb - 0.00 in0.0 mm 0.00 in0.0 mm
12:25 PM 70.9°F21.6°C 27.8°F-2.3°C 20% 11.5 mph NNE18.5 kmh NNE 12.7 mph20.4 kmh 29.95 in1014.2 mb - 0.00 in0.0 mm 0.00 in0.0 mm
12:20 PM 70.9°F21.6°C 27.8°F-2.3°C 20% 9.2 mph NNE14.8 kmh NNE 11.5 mph18.5 kmh 29.94 in1013.9 mb - 0.00 in0.0 mm 0.00 in0.0 mm
12:15 PM 70.4°F21.3°C 27.4°F-2.6°C 20% 10.4 mph NNE16.7 kmh NNE 11.5 mph18.5 kmh 29.94 in1013.9 mb - 0.00 in0.0 mm 0.00 in0.0 mm
12:10 PM 70.5°F21.4°C 27.5°F-2.5°C 20% 8.1 mph NNE13.0 kmh NNE 11.5 mph18.5 kmh 29.94 in1013.9 mb - 0.00 in0.0 mm 0.00 in0.0 mm
12:05 PM 70.0°F21.1°C 27.0°F-2.8°C 20% 15.0 mph NNW24.1 kmh NNW 17.3 mph27.8 kmh 29.95 in1014.2 mb - 0.00 in0.0 mm 0.00 in0.0 mm
12:00 PM 69.8°F21.0°C 26.9°F-2.8°C 20% 12.7 mph N20.4 kmh N 15.0 mph24.1 kmh 29.95 in1014.2 mb - 0.00 in0.0 mm 0.00 in0.0 mm
11:55 AM 69.8°F21.0°C 26.9°F-2.8°C 20% 13.8 mph N22.2 kmh N 16.1 mph25.9 kmh 29.95 in1014.2 mb - 0.00 in0.0 mm 0.00 in0.0 mm
11:50 AM 70.0°F21.1°C 27.0°F-2.8°C 20% 9.2 mph NNE14.8 kmh NNE 12.7 mph20.4 kmh 29.95 in1014.2 mb - 0.00 in0.0 mm 0.00 in0.0 mm
11:45 AM 69.8°F21.0°C 26.9°F-2.8°C 20% 9.2 mph SE14.8 kmh SE 9.2 mph14.8 kmh 29.95 in1014.2 mb - 0.00 in0.0 mm 0.00 in0.0 mm
11:40 AM 69.8°F21.0°C 25.6°F-3.6°C 19% 11.5 mph N18.5 kmh N 11.5 mph18.5 kmh 29.96 in1014.6 mb - 0.00 in0.0 mm 0.00 in0.0 mm
11:35 AM 69.3°F20.7°C 25.2°F-3.8°C 19% 10.4 mph NW16.7 kmh NW 10.4 mph16.7 kmh 29.96 in1014.6 mb - 0.00 in0.0 mm 0.00 in0.0 mm
11:30 AM 69.1°F20.6°C 25.1°F-3.8°C 19% 11.5 mph E18.5 kmh E 11.5 mph18.5 kmh 29.97 in1014.9 mb - 0.00 in0.0 mm 0.00 in0.0 mm
11:25 AM 68.7°F20.4°C 24.7°F-4.1°C 19% 9.2 mph NE14.8 kmh NE 9.2 mph14.8 kmh 29.97 in1014.9 mb - 0.00 in0.0 mm 0.00 in0.0 mm
11:20 AM 68.1°F20.1°C 23.0°F-5.0°C 18% 8.1 mph N13.0 kmh N 11.5 mph18.5 kmh 29.97 in1014.9 mb - 0.00 in0.0 mm 0.00 in0.0 mm
11:15 AM 67.8°F19.9°C 22.7°F-5.2°C 18% 10.4 mph NE16.7 kmh NE 9.2 mph14.8 kmh 29.97 in1014.9 mb - 0.00 in0.0 mm 0.00 in0.0 mm
11:10 AM 67.7°F19.8°C 21.3°F-5.9°C 17% 6.9 mph NW11.1 kmh NW 8.1 mph13.0 kmh 29.97 in1014.9 mb - 0.00 in0.0 mm 0.00 in0.0 mm
11:05 AM 67.1°F19.5°C 19.4°F-7.0°C 16% 9.2 mph WNW14.8 kmh WNW 11.5 mph18.5 kmh 29.98 in1015.2 mb - 0.00 in0.0 mm 0.00 in0.0 mm
11:00 AM 66.7°F19.3°C 19.0°F-7.2°C 16% 8.1 mph N13.0 kmh N 10.4 mph16.7 kmh 29.98 in1015.2 mb - 0.00 in0.0 mm 0.00 in0.0 mm
10:55 AM 66.6°F19.2°C 17.4°F-8.1°C 15% 5.8 mph NE9.3 kmh NE 8.1 mph13.0 kmh 29.98 in1015.2 mb - 0.00 in0.0 mm 0.00 in0.0 mm
10:50 AM 66.4°F19.1°C 17.3°F-8.2°C 15% 4.6 mph E7.4 kmh E 6.9 mph11.1 kmh 29.98 in1015.2 mb - 0.00 in0.0 mm 0.00 in0.0 mm
10:45 AM 66.0°F18.9°C 16.9°F-8.4°C 15% 8.1 mph NNE13.0 kmh NNE 12.7 mph20.4 kmh 29.98 in1015.2 mb - 0.00 in0.0 mm 0.00 in0.0 mm
10:40 AM 65.6°F18.7°C 16.7°F-8.5°C 15% 6.9 mph NNE11.1 kmh NNE 9.2 mph14.8 kmh 29.98 in1015.2 mb - 0.00 in0.0 mm 0.00 in0.0 mm
10:35 AM 65.2°F18.4°C 16.4°F-8.7°C 15% 8.1 mph NE13.0 kmh NE 9.2 mph14.8 kmh 29.98 in1015.2 mb - 0.00 in0.0 mm 0.00 in0.0 mm
10:30 AM 64.9°F18.3°C 16.1°F-8.8°C 15% 10.4 mph N16.7 kmh N 10.4 mph16.7 kmh 29.98 in1015.2 mb - 0.00 in0.0 mm 0.00 in0.0 mm
10:25 AM 64.8°F18.2°C 16.0°F-8.9°C 15% 10.4 mph NE16.7 kmh NE 11.5 mph18.5 kmh 29.98 in1015.2 mb - 0.00 in0.0 mm 0.00 in0.0 mm
10:20 AM 64.8°F18.2°C 16.0°F-8.9°C 15% 4.6 mph NNE7.4 kmh NNE 4.6 mph7.4 kmh 29.98 in1015.2 mb - 0.00 in0.0 mm 0.00 in0.0 mm
10:15 AM 64.6°F18.1°C 17.3°F-8.2°C 16% 5.8 mph N9.3 kmh N 9.2 mph14.8 kmh 29.98 in1015.2 mb - 0.00 in0.0 mm 0.00 in0.0 mm
10:10 AM 64.9°F18.3°C 17.6°F-8.0°C 16% 8.1 mph WNW13.0 kmh WNW 10.4 mph16.7 kmh 29.98 in1015.2 mb - 0.00 in0.0 mm 0.00 in0.0 mm
10:05 AM 64.4°F18.0°C 15.7°F-9.1°C 15% 6.9 mph NE11.1 kmh NE 6.9 mph11.1 kmh 29.98 in1015.2 mb - 0.00 in0.0 mm 0.00 in0.0 mm
10:00 AM 63.4°F17.4°C 14.9°F-9.5°C 15% 3.5 mph N5.6 kmh N 5.8 mph9.3 kmh 29.98 in1015.2 mb - 0.00 in0.0 mm 0.00 in0.0 mm
09:55 AM 63.0°F17.2°C 13.0°F-10.6°C 14% 6.9 mph NNE11.1 kmh NNE 9.2 mph14.8 kmh 29.97 in1014.9 mb - 0.00 in0.0 mm 0.00 in0.0 mm
09:50 AM 62.2°F16.8°C 12.3°F-10.9°C 14% 6.9 mph N11.1 kmh N 6.9 mph11.1 kmh 29.97 in1014.9 mb - 0.00 in0.0 mm 0.00 in0.0 mm
09:45 AM 61.7°F16.5°C 11.9°F-11.2°C 14% 8.1 mph N13.0 kmh N 9.2 mph14.8 kmh 29.97 in1014.9 mb - 0.00 in0.0 mm 0.00 in0.0 mm
09:40 AM 61.3°F16.3°C 11.6°F-11.3°C 14% 5.8 mph NNE9.3 kmh NNE 6.9 mph11.1 kmh 29.98 in1015.2 mb - 0.00 in0.0 mm 0.00 in0.0 mm
09:35 AM 61.2°F16.2°C 11.5°F-11.4°C 14% 6.9 mph NE11.1 kmh NE 10.4 mph16.7 kmh 29.98 in1015.2 mb - 0.00 in0.0 mm 0.00 in0.0 mm
09:30 AM 60.8°F16.0°C 11.2°F-11.6°C 14% 6.9 mph NNW11.1 kmh NNW 8.1 mph13.0 kmh 29.97 in1014.9 mb - 0.00 in0.0 mm 0.00 in0.0 mm
09:25 AM 60.4°F15.8°C 10.9°F-11.7°C 14% 8.1 mph NW13.0 kmh NW 8.1 mph13.0 kmh 29.97 in1014.9 mb - 0.00 in0.0 mm 0.00 in0.0 mm
09:20 AM 60.1°F15.6°C 10.7°F-11.8°C 14% 6.9 mph NNE11.1 kmh NNE 9.2 mph14.8 kmh 29.97 in1014.9 mb - 0.00 in0.0 mm 0.00 in0.0 mm
09:15 AM 59.7°F15.4°C 10.3°F-12.1°C 14% 9.2 mph N14.8 kmh N 9.2 mph14.8 kmh 29.96 in1014.6 mb - 0.00 in0.0 mm 0.00 in0.0 mm
09:10 AM 59.7°F15.4°C 10.3°F-12.1°C 14% 6.9 mph N11.1 kmh N 9.2 mph14.8 kmh 29.96 in1014.6 mb - 0.00 in0.0 mm 0.00 in0.0 mm
09:05 AM 59.2°F15.1°C 11.5°F-11.4°C 15% 9.2 mph N14.8 kmh N 9.2 mph14.8 kmh 29.96 in1014.6 mb - 0.00 in0.0 mm 0.00 in0.0 mm
09:00 AM 59.0°F15.0°C 11.3°F-11.5°C 15% 9.2 mph N14.8 kmh N 9.2 mph14.8 kmh 29.96 in1014.6 mb - 0.00 in0.0 mm 0.00 in0.0 mm
08:55 AM 58.5°F14.7°C 10.9°F-11.7°C 15% 8.1 mph NE13.0 kmh NE 9.2 mph14.8 kmh 29.96 in1014.6 mb - 0.00 in0.0 mm 0.00 in0.0 mm
08:50 AM 56.6°F13.7°C 10.9°F-11.7°C 16% 3.5 mph NE5.6 kmh NE 9.2 mph14.8 kmh 29.96 in1014.6 mb - 0.00 in0.0 mm 0.00 in0.0 mm
08:45 AM 53.9°F12.2°C 10.0°F-12.2°C 17% Calm Calm -- 29.96 in1014.6 mb - 0.00 in0.0 mm 0.00 in0.0 mm
08:40 AM 53.6°F12.0°C 9.7°F-12.4°C 17% Calm Calm -- 29.95 in1014.2 mb - 0.00 in0.0 mm 0.00 in0.0 mm
08:35 AM 53.4°F11.9°C 9.6°F-12.4°C 17% Calm Calm -- 29.95 in1014.2 mb - 0.00 in0.0 mm 0.00 in0.0 mm
08:30 AM 53.4°F11.9°C 9.6°F-12.4°C 17% 3.5 mph N5.6 kmh N 4.6 mph7.4 kmh 29.95 in1014.2 mb - 0.00 in0.0 mm 0.00 in0.0 mm
08:25 AM 53.4°F11.9°C 9.6°F-12.4°C 17% 6.9 mph N11.1 kmh N 9.2 mph14.8 kmh 29.95 in1014.2 mb - 0.00 in0.0 mm 0.00 in0.0 mm
08:20 AM 52.9°F11.6°C 9.2°F-12.7°C 17% 2.3 mph ENE3.7 kmh ENE 8.1 mph13.0 kmh 29.95 in1014.2 mb - 0.00 in0.0 mm 0.00 in0.0 mm
08:15 AM 52.9°F11.6°C 9.2°F-12.7°C 17% 6.9 mph NE11.1 kmh NE 8.1 mph13.0 kmh 29.95 in1014.2 mb - 0.00 in0.0 mm 0.00 in0.0 mm
08:10 AM 52.9°F11.6°C 9.2°F-12.7°C 17% 6.9 mph N11.1 kmh N 10.4 mph16.7 kmh 29.95 in1014.2 mb - 0.00 in0.0 mm 0.00 in0.0 mm
08:05 AM 53.1°F11.7°C 9.4°F-12.6°C 17% 5.8 mph N9.3 kmh N 6.9 mph11.1 kmh 29.95 in1014.2 mb - 0.00 in0.0 mm 0.00 in0.0 mm
08:00 AM 51.4°F10.8°C 9.3°F-12.6°C 18% 6.9 mph NNE11.1 kmh NNE 10.4 mph16.7 kmh 29.95 in1014.2 mb - 0.00 in0.0 mm 0.00 in0.0 mm
07:55 AM 49.7°F9.8°C 7.8°F-13.4°C 18% Calm Calm 4.6 mph7.4 kmh 29.95 in1014.2 mb - 0.00 in0.0 mm 0.00 in0.0 mm
07:50 AM 49.5°F9.7°C 7.7°F-13.5°C 18% Calm Calm -- 29.95 in1014.2 mb - 0.00 in0.0 mm 0.00 in0.0 mm
07:45 AM 49.6°F9.8°C 7.8°F-13.4°C 18% Calm Calm -- 29.95 in1014.2 mb - 0.00 in0.0 mm 0.00 in0.0 mm
07:40 AM 48.6°F9.2°C 6.9°F-13.9°C 18% Calm Calm -- 29.94 in1013.9 mb - 0.00 in0.0 mm 0.00 in0.0 mm
07:35 AM 48.6°F9.2°C 6.9°F-13.9°C 18% Calm Calm -- 29.94 in1013.9 mb - 0.00 in0.0 mm 0.00 in0.0 mm
07:30 AM 48.6°F9.2°C 6.9°F-13.9°C 18% Calm Calm -- 29.93 in1013.5 mb - 0.00 in0.0 mm 0.00 in0.0 mm
07:25 AM 48.6°F9.2°C 6.9°F-13.9°C 18% Calm Calm -- 29.93 in1013.5 mb - 0.00 in0.0 mm 0.00 in0.0 mm
07:20 AM 48.6°F9.2°C 6.9°F-13.9°C 18% Calm Calm -- 29.93 in1013.5 mb - 0.00 in0.0 mm 0.00 in0.0 mm
07:15 AM 48.6°F9.2°C 6.9°F-13.9°C 18% Calm Calm -- 29.93 in1013.5 mb - 0.00 in0.0 mm 0.00 in0.0 mm
07:10 AM 48.6°F9.2°C 6.9°F-13.9°C 18% Calm Calm -- 29.93 in1013.5 mb - 0.00 in0.0 mm 0.00 in0.0 mm
07:05 AM 48.6°F9.2°C 6.9°F-13.9°C 18% Calm Calm -- 29.92 in1013.2 mb - 0.00 in0.0 mm 0.00 in0.0 mm
07:00 AM 48.6°F9.2°C 6.9°F-13.9°C 18% Calm Calm -- 29.92 in1013.2 mb - 0.00 in0.0 mm 0.00 in0.0 mm
06:55 AM 48.6°F9.2°C 6.9°F-13.9°C 18% Calm Calm -- 29.92 in1013.2 mb - 0.00 in0.0 mm 0.00 in0.0 mm
06:50 AM 48.6°F9.2°C 6.9°F-13.9°C 18% Calm Calm -- 29.92 in1013.2 mb - 0.00 in0.0 mm 0.00 in0.0 mm
06:45 AM 48.6°F9.2°C 6.9°F-13.9°C 18% Calm Calm -- 29.92 in1013.2 mb - 0.00 in0.0 mm 0.00 in0.0 mm
06:40 AM 48.6°F9.2°C 6.9°F-13.9°C 18% Calm Calm -- 29.92 in1013.2 mb - 0.00 in0.0 mm 0.00 in0.0 mm
06:35 AM 48.6°F9.2°C 6.9°F-13.9°C 18% Calm Calm -- 29.92 in1013.2 mb - 0.00 in0.0 mm 0.00 in0.0 mm
06:30 AM 48.6°F9.2°C 6.9°F-13.9°C 18% Calm Calm -- 29.92 in1013.2 mb - 0.00 in0.0 mm 0.00 in0.0 mm
06:25 AM 48.6°F9.2°C 6.9°F-13.9°C 18% Calm Calm -- 29.92 in1013.2 mb - 0.00 in0.0 mm 0.00 in0.0 mm
06:20 AM 48.6°F9.2°C 6.9°F-13.9°C 18% Calm Calm -- 29.91 in1012.9 mb - 0.00 in0.0 mm 0.00 in0.0 mm
06:15 AM 48.6°F9.2°C 6.9°F-13.9°C 18% Calm Calm -- 29.91 in1012.9 mb - 0.00 in0.0 mm 0.00 in0.0 mm
06:10 AM 48.6°F9.2°C 6.9°F-13.9°C 18% Calm Calm -- 29.91 in1012.9 mb - 0.00 in0.0 mm 0.00 in0.0 mm
06:05 AM 51.3°F10.7°C 6.5°F-14.2°C 16% Calm Calm -- 29.91 in1012.9 mb - 0.00 in0.0 mm 0.00 in0.0 mm
06:00 AM 51.3°F10.7°C 6.5°F-14.2°C 16% Calm Calm -- 29.91 in1012.9 mb - 0.00 in0.0 mm 0.00 in0.0 mm
05:55 AM 51.3°F10.7°C 6.5°F-14.2°C 16% Calm Calm -- 29.91 in1012.9 mb - 0.00 in0.0 mm 0.00 in0.0 mm
05:50 AM 51.3°F10.7°C 6.5°F-14.2°C 16% Calm Calm -- 29.91 in1012.9 mb - 0.00 in0.0 mm 0.00 in0.0 mm
05:45 AM 51.3°F10.7°C 6.5°F-14.2°C 16% Calm Calm -- 29.91 in1012.9 mb - 0.00 in0.0 mm 0.00 in0.0 mm
05:40 AM 51.3°F10.7°C 6.5°F-14.2°C 16% Calm Calm -- 29.91 in1012.9 mb - 0.00 in0.0 mm 0.00 in0.0 mm
05:35 AM 51.3°F10.7°C 6.5°F-14.2°C 16% Calm Calm -- 29.91 in1012.9 mb - 0.00 in0.0 mm 0.00 in0.0 mm
05:30 AM 51.3°F10.7°C 6.5°F-14.2°C 16% Calm Calm -- 29.91 in1012.9 mb - 0.00 in0.0 mm 0.00 in0.0 mm
05:25 AM 51.3°F10.7°C 6.5°F-14.2°C 16% Calm Calm -- 29.91 in1012.9 mb - 0.00 in0.0 mm 0.00 in0.0 mm
05:20 AM 51.3°F10.7°C 6.5°F-14.2°C 16% Calm Calm -- 29.91 in1012.9 mb - 0.00 in0.0 mm 0.00 in0.0 mm
05:15 AM 51.3°F10.7°C 6.5°F-14.2°C 16% Calm Calm -- 29.91 in1012.9 mb - 0.00 in0.0 mm 0.00 in0.0 mm
05:10 AM 51.3°F10.7°C 6.5°F-14.2°C 16% Calm Calm -- 29.91 in1012.9 mb - 0.00 in0.0 mm 0.00 in0.0 mm
05:05 AM 51.3°F10.7°C 6.5°F-14.2°C 16% Calm Calm -- 29.91 in1012.9 mb - 0.00 in0.0 mm 0.00 in0.0 mm
05:00 AM 51.3°F10.7°C 6.5°F-14.2°C 16% Calm Calm -- 29.91 in1012.9 mb - 0.00 in0.0 mm 0.00 in0.0 mm
04:55 AM 51.3°F10.7°C 6.5°F-14.2°C 16% Calm Calm -- 29.90 in1012.5 mb - 0.00 in0.0 mm 0.00 in0.0 mm
04:50 AM 51.3°F10.7°C 6.5°F-14.2°C 16% Calm Calm -- 29.90 in1012.5 mb - 0.00 in0.0 mm 0.00 in0.0 mm
04:45 AM 51.3°F10.7°C 6.5°F-14.2°C 16% Calm Calm -- 29.90 in1012.5 mb - 0.00 in0.0 mm 0.00 in0.0 mm
04:40 AM 51.3°F10.7°C 6.5°F-14.2°C 16% Calm Calm -- 29.90 in1012.5 mb - 0.00 in0.0 mm 0.00 in0.0 mm
04:35 AM 51.3°F10.7°C 6.5°F-14.2°C 16% Calm Calm -- 29.90 in1012.5 mb - 0.00 in0.0 mm 0.00 in0.0 mm
04:30 AM 51.3°F10.7°C 6.5°F-14.2°C 16% Calm Calm -- 29.90 in1012.5 mb - 0.00 in0.0 mm 0.00 in0.0 mm
04:25 AM 51.3°F10.7°C 6.5°F-14.2°C 16% Calm Calm -- 29.90 in1012.5 mb - 0.00 in0.0 mm 0.00 in0.0 mm
04:20 AM 51.3°F10.7°C 6.5°F-14.2°C 16% Calm Calm -- 29.90 in1012.5 mb - 0.00 in0.0 mm 0.00 in0.0 mm
04:15 AM 51.3°F10.7°C 6.5°F-14.2°C 16% Calm Calm -- 29.90 in1012.5 mb - 0.00 in0.0 mm 0.00 in0.0 mm
04:10 AM 51.3°F10.7°C 6.5°F-14.2°C 16% Calm Calm -- 29.90 in1012.5 mb - 0.00 in0.0 mm 0.00 in0.0 mm
04:05 AM 51.3°F10.7°C 6.5°F-14.2°C 16% Calm Calm -- 29.91 in1012.9 mb - 0.00 in0.0 mm 0.00 in0.0 mm
04:00 AM 51.3°F10.7°C 6.5°F-14.2°C 16% Calm Calm -- 29.91 in1012.9 mb - 0.00 in0.0 mm 0.00 in0.0 mm
03:55 AM 51.3°F10.7°C 6.5°F-14.2°C 16% Calm Calm -- 29.91 in1012.9 mb - 0.00 in0.0 mm 0.00 in0.0 mm
03:50 AM 51.3°F10.7°C 6.5°F-14.2°C 16% Calm Calm -- 29.91 in1012.9 mb - 0.00 in0.0 mm 0.00 in0.0 mm
03:45 AM 51.3°F10.7°C 6.5°F-14.2°C 16% Calm Calm -- 29.91 in1012.9 mb - 0.00 in0.0 mm 0.00 in0.0 mm
03:40 AM 51.3°F10.7°C 6.5°F-14.2°C 16% Calm Calm -- 29.91 in1012.9 mb - 0.00 in0.0 mm 0.00 in0.0 mm
03:35 AM 51.3°F10.7°C 6.5°F-14.2°C 16% Calm Calm -- 29.91 in1012.9 mb - 0.00 in0.0 mm 0.00 in0.0 mm
03:30 AM 51.3°F10.7°C 6.5°F-14.2°C 16% Calm Calm -- 29.91 in1012.9 mb - 0.00 in0.0 mm 0.00 in0.0 mm
03:25 AM 51.3°F10.7°C 6.5°F-14.2°C 16% Calm Calm -- 29.91 in1012.9 mb - 0.00 in0.0 mm 0.00 in0.0 mm
03:20 AM 51.3°F10.7°C 6.5°F-14.2°C 16% Calm Calm -- 29.91 in1012.9 mb - 0.00 in0.0 mm 0.00 in0.0 mm
03:15 AM 51.3°F10.7°C 6.5°F-14.2°C 16% Calm Calm -- 29.91 in1012.9 mb - 0.00 in0.0 mm 0.00 in0.0 mm
03:10 AM 51.3°F10.7°C 6.5°F-14.2°C 16% Calm Calm -- 29.91 in1012.9 mb - 0.00 in0.0 mm 0.00 in0.0 mm
03:05 AM 51.3°F10.7°C 6.5°F-14.2°C 16% Calm Calm -- 29.91 in1012.9 mb - 0.00 in0.0 mm 0.00 in0.0 mm
03:00 AM 51.3°F10.7°C 6.5°F-14.2°C 16% Calm Calm -- 29.91 in1012.9 mb - 0.00 in0.0 mm 0.00 in0.0 mm
02:55 AM 51.3°F10.7°C 6.5°F-14.2°C 16% Calm Calm -- 29.91 in1012.9 mb - 0.00 in0.0 mm 0.00 in0.0 mm
02:50 AM 51.3°F10.7°C 6.5°F-14.2°C 16% Calm Calm -- 29.91 in1012.9 mb - 0.00 in0.0 mm 0.00 in0.0 mm
02:45 AM 51.3°F10.7°C 6.5°F-14.2°C 16% Calm Calm -- 29.91 in1012.9 mb - 0.00 in0.0 mm 0.00 in0.0 mm
02:40 AM 51.3°F10.7°C 6.5°F-14.2°C 16% Calm Calm -- 29.90 in1012.5 mb - 0.00 in0.0 mm 0.00 in0.0 mm
02:35 AM 51.3°F10.7°C 6.5°F-14.2°C 16% Calm Calm -- 29.91 in1012.9 mb - 0.00 in0.0 mm 0.00 in0.0 mm
02:30 AM 51.3°F10.7°C 6.5°F-14.2°C 16% Calm Calm -- 29.91 in1012.9 mb - 0.00 in0.0 mm 0.00 in0.0 mm
02:25 AM 51.3°F10.7°C 6.5°F-14.2°C 16% Calm Calm -- 29.91 in1012.9 mb - 0.00 in0.0 mm 0.00 in0.0 mm
02:20 AM 51.3°F10.7°C 6.5°F-14.2°C 16% Calm Calm -- 29.91 in1012.9 mb - 0.00 in0.0 mm 0.00 in0.0 mm
02:15 AM 51.3°F10.7°C 6.5°F-14.2°C 16% Calm Calm 3.5 mph5.6 kmh 29.90 in1012.5 mb - 0.00 in0.0 mm 0.00 in0.0 mm
02:10 AM 51.4°F10.8°C 6.6°F-14.1°C 16% Calm Calm -- 29.90 in1012.5 mb - 0.00 in0.0 mm 0.00 in0.0 mm
02:05 AM 51.4°F10.8°C 6.6°F-14.1°C 16% Calm Calm -- 29.90 in1012.5 mb - 0.00 in0.0 mm 0.00 in0.0 mm
02:00 AM 51.3°F10.7°C 6.5°F-14.2°C 16% Calm Calm -- 29.90 in1012.5 mb - 0.00 in0.0 mm 0.00 in0.0 mm
01:55 AM 51.4°F10.8°C 6.6°F-14.1°C 16% Calm Calm -- 29.90 in1012.5 mb - 0.00 in0.0 mm 0.00 in0.0 mm
01:50 AM 51.7°F10.9°C 6.9°F-13.9°C 16% Calm Calm -- 29.90 in1012.5 mb - 0.00 in0.0 mm 0.00 in0.0 mm
01:45 AM 51.8°F11.0°C 6.9°F-13.9°C 16% Calm Calm -- 29.90 in1012.5 mb - 0.00 in0.0 mm 0.00 in0.0 mm
01:40 AM 51.8°F11.0°C 7.0°F-13.9°C 16% 2.3 mph NE3.7 kmh NE 2.3 mph3.7 kmh 29.90 in1012.5 mb - 0.00 in0.0 mm 0.00 in0.0 mm
01:35 AM 52.2°F11.2°C 7.3°F-13.7°C 16% Calm Calm -- 29.90 in1012.5 mb - 0.00 in0.0 mm 0.00 in0.0 mm
01:30 AM 52.2°F11.2°C 7.3°F-13.7°C 16% Calm Calm -- 29.90 in1012.5 mb - 0.00 in0.0 mm 0.00 in0.0 mm
01:25 AM 52.2°F11.2°C 7.3°F-13.7°C 16% 3.5 mph NNE5.6 kmh NNE 3.5 mph5.6 kmh 29.90 in1012.5 mb - 0.00 in0.0 mm 0.00 in0.0 mm
01:20 AM 52.4°F11.3°C 7.5°F-13.6°C 16% Calm Calm -- 29.90 in1012.5 mb - 0.00 in0.0 mm 0.00 in0.0 mm
01:15 AM 53.1°F11.7°C 8.0°F-13.3°C 16% Calm Calm -- 29.90 in1012.5 mb - 0.00 in0.0 mm 0.00 in0.0 mm
01:10 AM 53.1°F11.7°C 8.0°F-13.3°C 16% 3.5 mph NE5.6 kmh NE 3.5 mph5.6 kmh 29.90 in1012.5 mb - 0.00 in0.0 mm 0.00 in0.0 mm
01:05 AM 53.1°F11.7°C 8.0°F-13.3°C 16% 5.8 mph NNW9.3 kmh NNW 6.9 mph11.1 kmh 29.91 in1012.9 mb - 0.00 in0.0 mm 0.00 in0.0 mm
01:00 AM 52.3°F11.3°C 7.4°F-13.7°C 16% 5.8 mph N9.3 kmh N 5.8 mph9.3 kmh 29.91 in1012.9 mb - 0.00 in0.0 mm 0.00 in0.0 mm
12:55 AM 52.3°F11.3°C 7.4°F-13.7°C 16% Calm Calm -- 29.91 in1012.9 mb - 0.00 in0.0 mm 0.00 in0.0 mm
12:50 AM 52.2°F11.2°C 7.3°F-13.7°C 16% Calm Calm -- 29.91 in1012.9 mb - 0.00 in0.0 mm 0.00 in0.0 mm
12:45 AM 52.0°F11.1°C 7.1°F-13.8°C 16% 3.5 mph NE5.6 kmh NE 4.6 mph7.4 kmh 29.91 in1012.9 mb - 0.00 in0.0 mm 0.00 in0.0 mm
12:40 AM 52.0°F11.1°C 7.1°F-13.8°C 16% 3.5 mph N5.6 kmh N 3.5 mph5.6 kmh 29.91 in1012.9 mb - 0.00 in0.0 mm 0.00 in0.0 mm
12:35 AM 52.0°F11.1°C 7.1°F-13.8°C 16% 3.5 mph N5.6 kmh N 3.5 mph5.6 kmh 29.91 in1012.9 mb - 0.00 in0.0 mm 0.00 in0.0 mm
12:30 AM 52.1°F11.2°C 7.2°F-13.8°C 16% 3.5 mph NNE5.6 kmh NNE 5.8 mph9.3 kmh 29.91 in1012.9 mb - 0.00 in0.0 mm 0.00 in0.0 mm
12:25 AM 52.5°F11.4°C 7.5°F-13.6°C 16% Calm Calm -- 29.91 in1012.9 mb - 0.00 in0.0 mm 0.00 in0.0 mm
12:20 AM 52.5°F11.4°C 7.5°F-13.6°C 16% Calm Calm -- 29.92 in1013.2 mb - 0.00 in0.0 mm 0.00 in0.0 mm
12:15 AM 52.9°F11.6°C 7.8°F-13.4°C 16% Calm Calm -- 29.92 in1013.2 mb - 0.00 in0.0 mm 0.00 in0.0 mm
12:10 AM 52.9°F11.6°C 7.8°F-13.4°C 16% Calm Calm -- 29.92 in1013.2 mb - 0.00 in0.0 mm 0.00 in0.0 mm
12:05 AM 53.1°F11.7°C 8.0°F-13.3°C 16% Calm Calm -- 29.93 in1013.5 mb - 0.00 in0.0 mm 0.00 in0.0 mm
12:00 AM 53.4°F11.9°C 8.3°F-13.2°C 16% Calm Calm -- 29.93 in1013.5 mb - 0.00 in0.0 mm 0.00 in0.0 mm